American Glory — WDA8860 — position and weather

sailwx.info

Track history (hours):
 
Tides and Currents Weather Stations Pressure Air Temp Water Temp Dewpoint Dewpoint Depression Visibility Wind Speed Wind Dir Waves Ship Positions

American Glory

Owner: AMERICAN CRUISE LINES INC, DELMAR, DE. More information available from US FCC via Universal Licensing System and Coast Guard Vessel Documentation Center.

Last reported at 2015-May-22 00:21 UTC. Time now 2015-May-25 07:28 UTC.
Position N 42°33' W 070°39'.

Length 54 m; draft 2.1 m.

Type: Passenger vessel. MMSI: 366858820.

Date/timePositionNaut miles runAvg speedWind from/ knotsBaromVisibWave heightAir tempDewpointWater temp
2015-May-22 00:21N 42°33' W 070°39'7 8.8
2015-May-21 23:33N 42°28' W 070°46'  
2015-May-17 22:27N 41°30' W 070°48'4 0.3
2015-May-17 08:31N 41°26' W 070°47'8 8.4
2015-May-17 07:33N 41°22' W 070°56'20 8.8
2015-May-17 05:19N 41°26' W 071°22'7 9.2
2015-May-17 04:30N 41°33' W 071°20'7 7.5
2015-May-17 03:33N 41°40' W 071°16'0 0.0
2015-May-17 02:33N 41°40' W 071°16'0 0.0
2015-May-17 01:33N 41°40' W 071°16'0 0.0
2015-May-17 00:33N 41°40' W 071°16'0 0.0
2015-May-16 23:23N 41°40' W 071°16'0 0.0
2015-May-16 22:33N 41°40' W 071°16'0 0.0
2015-May-16 21:31N 41°40' W 071°16'0 0.0
2015-May-16 20:34N 41°40' W 071°16'0 0.0
2015-May-16 19:24N 41°40' W 071°16'0 0.0
2015-May-16 18:30N 41°40' W 071°16'2 1.7
2015-May-16 17:34N 41°38' W 071°18'9 8.7
2015-May-16 16:33N 41°31' W 071°24'1010.0
2015-May-16 15:34N 41°22' W 071°28'1010.4
2015-May-16 14:34N 41°19' W 071°41'1010.0
2015-May-16 13:34N 41°16' W 071°54'8 8.3
2015-May-16 12:34N 41°14' W 072°05'8 7.9
2015-May-16 11:34N 41°12' W 072°15'8 7.9
2015-May-16 10:34N 41°08' W 072°24'9 8.5
2015-May-16 09:34N 41°04' W 072°34'9 9.3
2015-May-16 08:34N 41°02' W 072°46'1010.0
2015-May-16 07:34N 41°01' W 072°59'1010.2
2015-May-16 06:33N 41°00' W 073°13'1010.0
2015-May-16 05:34N 40°60' W 073°26'1010.3
2015-May-16 04:34N 40°55' W 073°38'10 9.8
2015-May-16 03:33N 40°48' W 073°47'7 7.1
2015-May-16 02:33N 40°47' W 073°56'6 5.9
2015-May-16 01:34N 40°42' W 074°01'3 2.7
2015-May-16 00:32N 40°45' W 074°01'0 0.0
2015-May-15 23:32N 40°45' W 074°01'0 0.0
2015-May-15 22:32N 40°45' W 074°01'0 0.0
2015-May-15 21:32N 40°45' W 074°01'0 0.0
2015-May-15 20:29N 40°45' W 074°01'0 0.0
2015-May-15 19:32N 40°45' W 074°01'0 0.0
2015-May-15 18:32N 40°45' W 074°01'0 0.0
2015-May-15 17:32N 40°45' W 074°01'0 0.0
2015-May-15 16:32N 40°45' W 074°01'0 0.0
2015-May-15 15:32N 40°45' W 074°01'0 0.0
2015-May-15 14:32N 40°45' W 074°01'0 0.0
2015-May-15 13:32N 40°45' W 074°01'0 0.0
2015-May-15 12:32N 40°45' W 074°01'0 0.0
2015-May-15 11:32N 40°45' W 074°01'4 3.6
2015-May-15 10:33N 40°42' W 074°02'5 4.9
2015-May-15 09:33N 40°37' W 074°03'6 6.4
2015-May-15 08:33N 40°31' W 073°59'6 6.2
2015-May-15 07:33N 40°25' W 073°56'7 6.3
2015-May-15 06:24N 40°18' W 073°56'7 6.8
2015-May-15 05:20N 40°11' W 073°59'21 7.5
2015-May-15 02:33N 39°50' W 074°03'9 8.9
2015-May-15 01:33N 39°42' W 074°05'9 9.4
2015-May-15 00:33N 39°34' W 074°12'10 9.5
2015-May-14 23:33N 39°25' W 074°15'11 9.6
2015-May-14 22:24N 39°17' W 074°26'29 9.3
2015-May-14 19:17N 38°54' W 074°48'6 7.7
2015-May-14 18:28N 38°50' W 074°54'7 7.5
2015-May-14 17:33N 38°50' W 075°03'1010.1
2015-May-14 16:33N 38°60' W 075°08'1111.2
2015-May-14 15:33N 39°09' W 075°15'1111.3
2015-May-14 14:33N 39°19' W 075°24'1010.3
2015-May-14 13:34N 39°26' W 075°32'8 8.1
2015-May-14 12:33N 39°34' W 075°33'7 6.9
2015-May-14 11:33N 39°41' W 075°31'8 7.5
2015-May-14 10:33N 39°48' W 075°26'9 8.8
2015-May-14 09:34N 39°51' W 075°16'8 7.9
2015-May-14 08:32N 39°57' W 075°08'0 0.0
2015-May-14 07:32N 39°57' W 075°08'0 0.0
2015-May-14 06:32N 39°57' W 075°08'0 0.0
2015-May-14 05:32N 39°57' W 075°08'0 0.0
2015-May-14 04:32N 39°57' W 075°08'0 0.0
2015-May-14 03:32N 39°57' W 075°08'0 0.0
2015-May-14 02:32N 39°57' W 075°08'0 0.0
2015-May-14 01:32N 39°57' W 075°08'0 0.0
2015-May-14 00:32N 39°57' W 075°08'0 0.0
2015-May-13 23:32N 39°57' W 075°08'0 0.0
2015-May-13 22:32N 39°57' W 075°08'0 0.0
2015-May-13 21:32N 39°57' W 075°08'0 0.0
2015-May-13 20:32N 39°57' W 075°08'0 0.0
2015-May-13 19:29N 39°57' W 075°08'0 0.0
2015-May-13 18:32N 39°57' W 075°08'0 0.0
2015-May-13 17:32N 39°57' W 075°08'0 0.0
2015-May-13 16:32N 39°57' W 075°08'0 0.0
2015-May-13 15:32N 39°57' W 075°08'0 0.0
2015-May-13 14:32N 39°57' W 075°08'0 0.0
2015-May-13 13:32N 39°57' W 075°08'0 0.0
2015-May-13 12:32N 39°57' W 075°08'0 0.0
2015-May-13 11:29N 39°57' W 075°08'0 0.0
2015-May-13 10:33N 39°57' W 075°08'5 5.1
2015-May-13 09:33N 39°53' W 075°12'9 8.6
2015-May-13 08:33N 39°50' W 075°23'8 8.4
2015-May-13 07:33N 39°43' W 075°30'7 7.5
2015-May-13 06:33N 39°37' W 075°35'6 5.6
2015-May-13 05:33N 39°33' W 075°40'10 9.5
2015-May-13 04:33N 39°32' W 075°52'9 8.5
2015-May-13 03:33N 39°26' W 076°00'8 8.4
2015-May-13 02:33N 39°21' W 076°09'19 6.4
2015-May-12 23:30N 39°14' W 076°33'4 0.4
2015-May-12 13:19N 39°17' W 076°36'0 0.3
2015-May-12 12:32N 39°17' W 076°37'16 8.1
2015-May-12 10:33N 39°05' W 076°24'9 8.5
2015-May-12 09:33N 38°56' W 076°24'10 9.1
2015-May-12 08:27N 38°46' W 076°28'45 9.1
2015-May-12 03:29N 38°02' W 076°14'  
Track history (hours):
 
Tides and Currents Weather Stations Pressure Air Temp Water Temp Dewpoint Dewpoint Depression Visibility Wind Speed Wind Dir Waves Ship Positions

American Glory

Owner: AMERICAN CRUISE LINES INC, DELMAR, DE. More information available from US FCC via Universal Licensing System and Coast Guard Vessel Documentation Center.

Last reported at 2015-May-22 00:21 UTC. Time now 2015-May-25 07:28 UTC.
Position N 42°33' W 070°39'.

Length 54 m; draft 2.1 m.

Type: Passenger vessel. MMSI: 366858820.

Date/timePositionNaut miles runAvg speedWind from/ knotsBaromVisibWave heightAir tempDewpointWater temp
2015-May-22 00:21N 42°33' W 070°39'7 8.8
2015-May-21 23:33N 42°28' W 070°46'  
2015-May-17 22:27N 41°30' W 070°48'4 0.3
2015-May-17 08:31N 41°26' W 070°47'8 8.4
2015-May-17 07:33N 41°22' W 070°56'20 8.8
2015-May-17 05:19N 41°26' W 071°22'7 9.2
2015-May-17 04:30N 41°33' W 071°20'7 7.5
2015-May-17 03:33N 41°40' W 071°16'0 0.0
2015-May-17 02:33N 41°40' W 071°16'0 0.0
2015-May-17 01:33N 41°40' W 071°16'0 0.0
2015-May-17 00:33N 41°40' W 071°16'0 0.0
2015-May-16 23:23N 41°40' W 071°16'0 0.0
2015-May-16 22:33N 41°40' W 071°16'0 0.0
2015-May-16 21:31N 41°40' W 071°16'0 0.0
2015-May-16 20:34N 41°40' W 071°16'0 0.0
2015-May-16 19:24N 41°40' W 071°16'0 0.0
2015-May-16 18:30N 41°40' W 071°16'2 1.7
2015-May-16 17:34N 41°38' W 071°18'9 8.7
2015-May-16 16:33N 41°31' W 071°24'1010.0
2015-May-16 15:34N 41°22' W 071°28'1010.4
2015-May-16 14:34N 41°19' W 071°41'1010.0
2015-May-16 13:34N 41°16' W 071°54'8 8.3
2015-May-16 12:34N 41°14' W 072°05'8 7.9
2015-May-16 11:34N 41°12' W 072°15'8 7.9
2015-May-16 10:34N 41°08' W 072°24'9 8.5
2015-May-16 09:34N 41°04' W 072°34'9 9.3
2015-May-16 08:34N 41°02' W 072°46'1010.0
2015-May-16 07:34N 41°01' W 072°59'1010.2
2015-May-16 06:33N 41°00' W 073°13'1010.0
2015-May-16 05:34N 40°60' W 073°26'1010.3
2015-May-16 04:34N 40°55' W 073°38'10 9.8
2015-May-16 03:33N 40°48' W 073°47'7 7.1
2015-May-16 02:33N 40°47' W 073°56'6 5.9
2015-May-16 01:34N 40°42' W 074°01'3 2.7
2015-May-16 00:32N 40°45' W 074°01'0 0.0
2015-May-15 23:32N 40°45' W 074°01'0 0.0
2015-May-15 22:32N 40°45' W 074°01'0 0.0
2015-May-15 21:32N 40°45' W 074°01'0 0.0
2015-May-15 20:29N 40°45' W 074°01'0 0.0
2015-May-15 19:32N 40°45' W 074°01'0 0.0
2015-May-15 18:32N 40°45' W 074°01'0 0.0
2015-May-15 17:32N 40°45' W 074°01'0 0.0
2015-May-15 16:32N 40°45' W 074°01'0 0.0
2015-May-15 15:32N 40°45' W 074°01'0 0.0
2015-May-15 14:32N 40°45' W 074°01'0 0.0
2015-May-15 13:32N 40°45' W 074°01'0 0.0
2015-May-15 12:32N 40°45' W 074°01'0 0.0
2015-May-15 11:32N 40°45' W 074°01'4 3.6
2015-May-15 10:33N 40°42' W 074°02'5 4.9
2015-May-15 09:33N 40°37' W 074°03'6 6.4
2015-May-15 08:33N 40°31' W 073°59'6 6.2
2015-May-15 07:33N 40°25' W 073°56'7 6.3
2015-May-15 06:24N 40°18' W 073°56'7 6.8
2015-May-15 05:20N 40°11' W 073°59'21 7.5
2015-May-15 02:33N 39°50' W 074°03'9 8.9
2015-May-15 01:33N 39°42' W 074°05'9 9.4
2015-May-15 00:33N 39°34' W 074°12'10 9.5
2015-May-14 23:33N 39°25' W 074°15'11 9.6
2015-May-14 22:24N 39°17' W 074°26'29 9.3
2015-May-14 19:17N 38°54' W 074°48'6 7.7
2015-May-14 18:28N 38°50' W 074°54'7 7.5
2015-May-14 17:33N 38°50' W 075°03'1010.1
2015-May-14 16:33N 38°60' W 075°08'1111.2
2015-May-14 15:33N 39°09' W 075°15'1111.3
2015-May-14 14:33N 39°19' W 075°24'1010.3
2015-May-14 13:34N 39°26' W 075°32'8 8.1
2015-May-14 12:33N 39°34' W 075°33'7 6.9
2015-May-14 11:33N 39°41' W 075°31'8 7.5
2015-May-14 10:33N 39°48' W 075°26'9 8.8
2015-May-14 09:34N 39°51' W 075°16'8 7.9
2015-May-14 08:32N 39°57' W 075°08'0 0.0
2015-May-14 07:32N 39°57' W 075°08'0 0.0
2015-May-14 06:32N 39°57' W 075°08'0 0.0
2015-May-14 05:32N 39°57' W 075°08'0 0.0
2015-May-14 04:32N 39°57' W 075°08'0 0.0
2015-May-14 03:32N 39°57' W 075°08'0 0.0
2015-May-14 02:32N 39°57' W 075°08'0 0.0
2015-May-14 01:32N 39°57' W 075°08'0 0.0
2015-May-14 00:32N 39°57' W 075°08'0 0.0
2015-May-13 23:32N 39°57' W 075°08'0 0.0
2015-May-13 22:32N 39°57' W 075°08'0 0.0
2015-May-13 21:32N 39°57' W 075°08'0 0.0
2015-May-13 20:32N 39°57' W 075°08'0 0.0
2015-May-13 19:29N 39°57' W 075°08'0 0.0
2015-May-13 18:32N 39°57' W 075°08'0 0.0
2015-May-13 17:32N 39°57' W 075°08'0 0.0
2015-May-13 16:32N 39°57' W 075°08'0 0.0
2015-May-13 15:32N 39°57' W 075°08'0 0.0
2015-May-13 14:32N 39°57' W 075°08'0 0.0
2015-May-13 13:32N 39°57' W 075°08'0 0.0
2015-May-13 12:32N 39°57' W 075°08'0 0.0
2015-May-13 11:29N 39°57' W 075°08'0 0.0
2015-May-13 10:33N 39°57' W 075°08'5 5.1
2015-May-13 09:33N 39°53' W 075°12'9 8.6
2015-May-13 08:33N 39°50' W 075°23'8 8.4
2015-May-13 07:33N 39°43' W 075°30'7 7.5
2015-May-13 06:33N 39°37' W 075°35'6 5.6
2015-May-13 05:33N 39°33' W 075°40'10 9.5
2015-May-13 04:33N 39°32' W 075°52'9 8.5
2015-May-13 03:33N 39°26' W 076°00'8 8.4
2015-May-13 02:33N 39°21' W 076°09'19 6.4
2015-May-12 23:30N 39°14' W 076°33'4 0.4
2015-May-12 13:19N 39°17' W 076°36'0 0.3
2015-May-12 12:32N 39°17' W 076°37'16 8.1
2015-May-12 10:33N 39°05' W 076°24'9 8.5
2015-May-12 09:33N 38°56' W 076°24'10 9.1
2015-May-12 08:27N 38°46' W 076°28'45 9.1
2015-May-12 03:29N 38°02' W 076°14'  

Dump ship's entire track history